createdAt,value
2022-11-15T00:00:06.727Z,23.6
2022-11-15T00:01:09.265Z,23.5
2022-11-15T00:02:11.647Z,23.6
2022-11-15T00:03:14.361Z,23.6
2022-11-15T00:04:16.309Z,23.6
2022-11-15T00:05:18.219Z,23.6
2022-11-15T00:06:20.696Z,23.6
2022-11-15T00:08:27.670Z,23.6
2022-11-15T00:09:29.879Z,23.6
2022-11-15T00:10:32.353Z,23.6
2022-11-15T00:11:34.818Z,23.6
2022-11-15T00:12:37.284Z,23.6
2022-11-15T00:13:39.489Z,23.6
2022-11-15T00:14:41.958Z,23.7
2022-11-15T00:15:43.854Z,23.7
2022-11-15T00:16:46.122Z,23.7
2022-11-15T00:17:48.037Z,23.7
2022-11-15T00:18:51.441Z,23.7
2022-11-15T00:19:53.350Z,23.7
2022-11-15T00:20:55.830Z,23.7
2022-11-15T00:21:57.766Z,23.7
2022-11-15T00:22:59.996Z,23.7
2022-11-15T00:24:01.912Z,23.7
2022-11-15T00:25:04.384Z,23.7
2022-11-15T00:26:06.583Z,23.7
2022-11-15T00:27:09.216Z,23.7
2022-11-15T00:28:11.685Z,23.7
2022-11-15T00:29:14.167Z,23.7
2022-11-15T00:30:16.656Z,23.7
2022-11-15T00:31:19.133Z,23.7
2022-11-15T00:32:21.513Z,23.7
2022-11-15T00:33:23.440Z,23.7
2022-11-15T00:34:25.358Z,23.7
2022-11-15T00:35:27.605Z,23.7
2022-11-15T00:36:29.510Z,23.8
2022-11-15T00:37:31.717Z,23.8
2022-11-15T00:38:34.233Z,23.8
2022-11-15T00:39:36.432Z,23.8
2022-11-15T00:40:38.082Z,23.8
2022-11-15T00:41:40.275Z,23.8
2022-11-15T00:42:42.471Z,23.8
2022-11-15T00:43:45.276Z,23.8
2022-11-15T00:44:47.748Z,23.8
2022-11-15T00:45:50.273Z,23.8
2022-11-15T00:46:52.484Z,23.8
2022-11-15T00:47:55.025Z,23.8
2022-11-15T00:48:57.205Z,23.8
2022-11-15T00:49:59.133Z,23.8
2022-11-15T00:51:01.598Z,23.8
2022-11-15T00:52:04.136Z,23.8
2022-11-15T00:53:06.327Z,23.8
2022-11-15T00:54:08.859Z,23.8
2022-11-15T00:55:10.854Z,23.8
2022-11-15T00:56:12.765Z,23.8
2022-11-15T00:57:14.934Z,23.8
2022-11-15T00:58:17.152Z,23.9
2022-11-15T00:59:19.365Z,23.9
2022-11-15T01:00:21.837Z,23.8
2022-11-15T01:01:24.257Z,23.9
2022-11-15T01:02:26.705Z,23.9
2022-11-15T01:03:30.399Z,23.9
2022-11-15T01:04:33.901Z,23.9
2022-11-15T01:05:36.382Z,23.9
2022-11-15T01:06:38.583Z,23.9
2022-11-15T01:07:41.058Z,23.9
2022-11-15T01:08:42.956Z,23.9
2022-11-15T01:09:45.195Z,23.9
2022-11-15T01:10:47.113Z,23.9
2022-11-15T01:11:49.026Z,23.9
2022-11-15T01:12:51.504Z,23.9
2022-11-15T01:13:53.706Z,23.9
2022-11-15T01:14:56.186Z,23.9
2022-11-15T01:15:58.108Z,23.9
2022-11-15T01:17:00.313Z,23.9
2022-11-15T01:18:02.803Z,23.9
2022-11-15T01:19:05.377Z,23.9
2022-11-15T01:20:08.210Z,23.9
2022-11-15T01:21:10.409Z,23.9
2022-11-15T01:22:12.588Z,23.9
2022-11-15T01:23:15.050Z,23.9
2022-11-15T01:24:17.256Z,23.9
2022-11-15T01:25:19.803Z,23.9
2022-11-15T01:26:21.998Z,23.9
2022-11-15T01:27:23.914Z,23.9
2022-11-15T01:28:26.387Z,24
2022-11-15T01:29:28.850Z,24
2022-11-15T01:30:31.320Z,24
2022-11-15T01:31:33.499Z,24
2022-11-15T01:32:35.963Z,24
2022-11-15T01:33:38.155Z,24
2022-11-15T01:34:40.424Z,24
2022-11-15T01:35:42.890Z,24
2022-11-15T01:36:45.366Z,24
2022-11-15T01:37:47.835Z,24
2022-11-15T01:38:49.747Z,24
2022-11-15T01:39:52.213Z,24
2022-11-15T01:40:54.448Z,24
2022-11-15T01:41:56.629Z,24.1
2022-11-15T01:42:58.550Z,24.1
2022-11-15T01:44:01.024Z,24.1
2022-11-15T01:45:02.949Z,24.1
2022-11-15T01:46:05.143Z,24.1
2022-11-15T01:47:07.327Z,24.1
2022-11-15T01:48:09.797Z,24.1
2022-11-15T01:49:11.995Z,24.1
2022-11-15T01:50:14.263Z,24.1
2022-11-15T01:51:16.736Z,24.1
2022-11-15T01:52:19.210Z,24.1
2022-11-15T01:53:21.679Z,24.1
2022-11-15T01:54:24.144Z,24.1
2022-11-15T01:55:26.615Z,24.1
2022-11-15T01:56:28.860Z,24.1
2022-11-15T01:57:31.050Z,24.1
2022-11-15T01:58:33.249Z,24.2
2022-11-15T01:59:35.439Z,24.2
2022-11-15T02:00:37.499Z,24.2
2022-11-15T02:01:39.777Z,24.2
2022-11-15T02:02:42.251Z,24.2
2022-11-15T02:03:44.728Z,24.2
2022-11-15T02:04:46.923Z,24.2
2022-11-15T02:05:49.451Z,24.2
2022-11-15T02:06:51.629Z,24.2
2022-11-15T02:07:54.013Z,24.2
2022-11-15T02:08:56.223Z,24.2
2022-11-15T02:09:58.414Z,24.2
2022-11-15T02:11:00.609Z,24.2
2022-11-15T02:12:03.120Z,24.2
2022-11-15T02:13:05.042Z,24.2
2022-11-15T02:14:07.525Z,24.2
2022-11-15T02:15:09.991Z,24.2
2022-11-15T02:16:12.162Z,24.2
2022-11-15T02:17:13.800Z,24.2
2022-11-15T02:18:16.267Z,24.2
2022-11-15T02:19:18.467Z,24.2
2022-11-15T02:20:20.943Z,24.2
2022-11-15T02:21:23.193Z,24.2
2022-11-15T02:22:25.678Z,24.2
2022-11-15T02:23:28.258Z,24.2
2022-11-15T02:24:31.708Z,24.3
2022-11-15T02:25:33.358Z,24.3
2022-11-15T02:26:35.829Z,24.3
2022-11-15T02:27:38.088Z,24.3
2022-11-15T02:28:40.557Z,24.3
2022-11-15T02:29:43.035Z,24.3
2022-11-15T02:30:45.223Z,24.3
2022-11-15T02:31:47.440Z,24.3
2022-11-15T02:32:49.906Z,24.3
2022-11-15T02:33:52.128Z,24.3
2022-11-15T02:34:54.321Z,24.3
2022-11-15T02:35:56.257Z,24.3
2022-11-15T02:36:58.241Z,24.3
2022-11-15T02:38:00.435Z,24.3
2022-11-15T02:39:02.359Z,24.3
2022-11-15T02:40:04.581Z,24.3
2022-11-15T02:41:06.757Z,24.3
2022-11-15T02:42:09.230Z,24.3
2022-11-15T02:43:11.744Z,24.3
2022-11-15T02:44:13.396Z,24.3
2022-11-15T02:45:15.590Z,24.3
2022-11-15T02:46:17.794Z,24.3
2022-11-15T02:47:19.728Z,24.3
2022-11-15T02:48:22.228Z,24.3
2022-11-15T02:49:24.156Z,24.3
2022-11-15T02:50:26.626Z,24.3
2022-11-15T02:51:29.112Z,24.3
2022-11-15T02:52:31.396Z,24.3
2022-11-15T02:53:34.654Z,24.3
2022-11-15T02:54:37.265Z,24.3
2022-11-15T02:55:39.464Z,24.3
2022-11-15T02:56:41.935Z,24.3
2022-11-15T02:57:44.416Z,24.3
2022-11-15T02:58:46.927Z,24.3
2022-11-15T02:59:49.429Z,24.3
2022-11-15T03:00:51.521Z,24.3
2022-11-15T03:01:54.148Z,24.3
2022-11-15T03:02:55.769Z,24.3
2022-11-15T03:03:58.249Z,24.3
2022-11-15T03:05:00.446Z,24.3
2022-11-15T03:06:02.922Z,24.3
2022-11-15T03:07:05.296Z,24.3
2022-11-15T03:08:07.955Z,24.3
2022-11-15T03:09:10.151Z,24.3
2022-11-15T03:10:12.080Z,24.3
2022-11-15T03:11:13.998Z,24.3
2022-11-15T03:12:16.471Z,24.3
2022-11-15T03:13:18.955Z,24.3
2022-11-15T03:14:21.478Z,24.3
2022-11-15T03:15:23.941Z,24.3
2022-11-15T03:16:26.137Z,24.3
2022-11-15T03:17:28.604Z,24.3
2022-11-15T03:18:31.093Z,24.3
2022-11-15T03:19:33.567Z,24.3
2022-11-15T03:20:36.040Z,24.3
2022-11-15T03:21:38.543Z,24.3
2022-11-15T03:22:41.096Z,24.3
2022-11-15T03:23:43.643Z,24.3
2022-11-15T03:24:46.118Z,24.3
2022-11-15T03:25:48.584Z,24.3
2022-11-15T03:26:50.770Z,24.3
2022-11-15T03:27:52.687Z,24.3
2022-11-15T03:28:55.187Z,24.3
2022-11-15T03:29:57.696Z,24.3
2022-11-15T03:30:59.908Z,24.3
2022-11-15T03:32:02.087Z,24.3
2022-11-15T03:33:04.569Z,24.3
2022-11-15T03:34:07.036Z,24.3
2022-11-15T03:35:09.214Z,24.3
2022-11-15T03:36:11.685Z,24.3
2022-11-15T03:37:13.602Z,24.3
2022-11-15T03:38:15.833Z,24.3
2022-11-15T03:40:22.959Z,24.3
2022-11-15T03:41:25.423Z,24.3
2022-11-15T03:42:27.619Z,24.3
2022-11-15T03:43:31.069Z,24.3
2022-11-15T03:44:34.343Z,24.3
2022-11-15T03:45:36.938Z,24.3
2022-11-15T03:46:39.624Z,24.3
2022-11-15T03:47:42.167Z,24.3
2022-11-15T03:48:44.679Z,24.3
2022-11-15T03:49:46.589Z,24.3
2022-11-15T03:50:48.802Z,24.3
2022-11-15T03:51:50.717Z,24.3
2022-11-15T03:52:52.897Z,24.3
2022-11-15T03:53:55.083Z,24.3
2022-11-15T03:54:57.298Z,24.3
2022-11-15T03:55:59.823Z,24.3
2022-11-15T03:57:02.124Z,24.3
2022-11-15T03:58:04.339Z,24.3
2022-11-15T03:59:06.825Z,24.4
2022-11-15T04:00:09.296Z,24.4
2022-11-15T04:01:11.912Z,24.3
2022-11-15T04:02:14.508Z,24.3
2022-11-15T04:03:16.422Z,24.3
2022-11-15T04:04:18.619Z,24.3
2022-11-15T04:05:21.094Z,24.3
2022-11-15T04:06:23.288Z,24.3
2022-11-15T04:07:26.455Z,24.2
2022-11-15T04:08:29.978Z,24.2
2022-11-15T04:09:32.397Z,24.2
2022-11-15T04:10:34.897Z,24.2
2022-11-15T04:11:37.140Z,24.1
2022-11-15T04:12:39.328Z,24.1
2022-11-15T04:13:41.806Z,24.1
2022-11-15T04:14:44.282Z,24.1
2022-11-15T04:15:46.750Z,24.1
2022-11-15T04:16:48.989Z,24.1
2022-11-15T04:17:51.462Z,24.1
2022-11-15T04:18:53.945Z,24
2022-11-15T04:19:56.141Z,24
2022-11-15T04:20:58.601Z,24
2022-11-15T04:22:00.800Z,24
2022-11-15T04:23:03.264Z,24
2022-11-15T04:24:05.475Z,24
2022-11-15T04:25:07.949Z,24
2022-11-15T04:26:10.440Z,24
2022-11-15T04:27:12.947Z,24
2022-11-15T04:28:15.413Z,24
2022-11-15T04:29:17.883Z,24
2022-11-15T04:30:20.078Z,23.9
2022-11-15T04:31:22.546Z,23.9
2022-11-15T04:32:25.072Z,23.9
2022-11-15T04:33:27.547Z,23.9
2022-11-15T04:34:29.811Z,23.9
2022-11-15T04:35:32.442Z,23.9
2022-11-15T04:36:34.913Z,23.9
2022-11-15T04:37:36.847Z,23.9
2022-11-15T04:38:39.040Z,23.9
2022-11-15T04:39:41.518Z,23.9
2022-11-15T04:40:43.716Z,23.9
2022-11-15T04:41:45.934Z,23.9
2022-11-15T04:42:48.459Z,23.9
2022-11-15T04:43:50.935Z,23.9
2022-11-15T04:44:53.403Z,23.9
2022-11-15T04:45:55.325Z,23.9
2022-11-15T04:46:57.234Z,23.9
2022-11-15T04:47:59.488Z,23.8
2022-11-15T04:49:01.955Z,23.9
2022-11-15T04:50:04.455Z,23.9
2022-11-15T04:51:07.310Z,23.8
2022-11-15T04:52:09.728Z,23.9
2022-11-15T04:53:12.229Z,23.8
2022-11-15T04:54:14.423Z,23.8
2022-11-15T04:55:16.618Z,23.8
2022-11-15T04:56:18.535Z,23.8
2022-11-15T04:57:20.457Z,23.8
2022-11-15T04:58:22.973Z,23.8
2022-11-15T04:59:24.602Z,23.8
2022-11-15T05:00:26.508Z,23.8
2022-11-15T05:01:28.997Z,23.8
2022-11-15T05:02:31.728Z,23.8
2022-11-15T05:03:35.335Z,23.8
2022-11-15T05:04:37.942Z,23.8
2022-11-15T05:05:39.872Z,23.8
2022-11-15T05:06:42.087Z,23.8
2022-11-15T05:07:44.274Z,23.8
2022-11-15T05:08:46.747Z,23.8
2022-11-15T05:09:49.230Z,23.8
2022-11-15T05:10:51.713Z,23.8
2022-11-15T05:11:53.904Z,23.8
2022-11-15T05:12:56.110Z,23.8
2022-11-15T05:13:58.622Z,23.8
2022-11-15T05:15:00.847Z,23.8
2022-11-15T05:16:03.327Z,23.8
2022-11-15T05:17:06.181Z,23.8
2022-11-15T05:18:08.653Z,23.8
2022-11-15T05:19:11.191Z,23.8
2022-11-15T05:20:13.109Z,23.8
2022-11-15T05:21:15.017Z,23.8
2022-11-15T05:22:17.232Z,23.8
2022-11-15T05:23:19.126Z,23.8
2022-11-15T05:24:21.318Z,23.8
2022-11-15T05:25:23.531Z,23.8
2022-11-15T05:26:25.709Z,23.8
2022-11-15T05:27:27.639Z,23.8
2022-11-15T05:28:30.170Z,23.8
2022-11-15T05:29:32.695Z,23.8
2022-11-15T05:30:34.878Z,23.8
2022-11-15T05:31:37.362Z,23.8
2022-11-15T05:32:39.552Z,23.8
2022-11-15T05:33:42.041Z,23.8
2022-11-15T05:34:44.292Z,23.8
2022-11-15T05:35:46.773Z,23.8
2022-11-15T05:36:48.966Z,23.8
2022-11-15T05:37:51.163Z,23.8
2022-11-15T05:38:53.343Z,23.7
2022-11-15T05:39:55.820Z,23.7
2022-11-15T05:40:58.024Z,23.7
2022-11-15T05:42:00.218Z,23.7
2022-11-15T05:43:03.184Z,23.8
2022-11-15T05:44:05.765Z,23.7
2022-11-15T05:45:08.026Z,23.7
2022-11-15T05:46:10.490Z,23.7
2022-11-15T05:47:12.716Z,23.7
2022-11-15T05:48:14.919Z,23.7
2022-11-15T05:49:17.440Z,23.7
2022-11-15T05:50:19.983Z,23.7
2022-11-15T05:51:22.206Z,23.7
2022-11-15T05:52:24.132Z,23.7
2022-11-15T05:53:26.332Z,23.7
2022-11-15T05:54:28.519Z,23.7
2022-11-15T05:55:30.426Z,23.7
2022-11-15T05:56:32.616Z,23.7
2022-11-15T05:57:34.819Z,23.7
2022-11-15T05:58:37.282Z,23.7
2022-11-15T05:59:39.528Z,23.7
2022-11-15T06:00:41.525Z,23.7
2022-11-15T06:01:44.191Z,23.7
2022-11-15T06:02:46.912Z,23.7
2022-11-15T06:03:49.113Z,23.7
2022-11-15T06:04:51.575Z,23.7
2022-11-15T06:05:54.093Z,23.7
2022-11-15T06:06:56.851Z,23.7
2022-11-15T06:07:59.492Z,23.7
2022-11-15T06:09:01.690Z,23.7
2022-11-15T06:10:04.116Z,23.7
2022-11-15T06:11:06.588Z,23.7
2022-11-15T06:12:08.788Z,23.7
2022-11-15T06:13:10.705Z,23.7
2022-11-15T06:14:13.177Z,23.7
2022-11-15T06:15:15.396Z,23.7
2022-11-15T06:16:17.927Z,23.7
2022-11-15T06:17:20.111Z,23.7
2022-11-15T06:18:22.320Z,23.7
2022-11-15T06:19:24.520Z,23.7
2022-11-15T06:20:26.718Z,23.7
2022-11-15T06:21:29.291Z,23.7
2022-11-15T06:22:31.815Z,23.7
2022-11-15T06:23:34.587Z,23.7
2022-11-15T06:24:37.084Z,23.7
2022-11-15T06:25:38.988Z,23.7
2022-11-15T06:26:41.456Z,23.7
2022-11-15T06:27:43.390Z,23.7
2022-11-15T06:28:45.313Z,23.7
2022-11-15T06:29:47.525Z,23.7
2022-11-15T06:31:54.447Z,23.7
2022-11-15T06:32:56.639Z,23.7
2022-11-15T06:33:58.279Z,23.7
2022-11-15T06:35:00.475Z,23.7
2022-11-15T06:36:02.784Z,23.7
2022-11-15T06:37:05.036Z,23.7
2022-11-15T06:38:07.244Z,23.7
2022-11-15T06:39:09.180Z,23.7
2022-11-15T06:40:11.078Z,23.7
2022-11-15T06:41:13.561Z,23.7
2022-11-15T06:42:16.037Z,23.6
2022-11-15T06:43:18.510Z,23.7
2022-11-15T06:44:20.442Z,23.7
2022-11-15T06:45:22.925Z,23.6
2022-11-15T06:46:25.438Z,23.6
2022-11-15T06:47:27.967Z,23.7
2022-11-15T06:48:29.920Z,23.7
2022-11-15T06:49:32.410Z,23.7
2022-11-15T06:50:34.356Z,23.7
2022-11-15T06:51:36.574Z,23.7
2022-11-15T06:52:39.101Z,23.6
2022-11-15T06:53:41.575Z,23.6
2022-11-15T06:54:43.787Z,23.6
2022-11-15T06:55:45.692Z,23.6
2022-11-15T06:56:47.906Z,23.7
2022-11-15T06:57:49.551Z,23.6
2022-11-15T06:58:52.056Z,23.6
2022-11-15T06:59:54.242Z,23.6
2022-11-15T07:00:56.637Z,23.6
2022-11-15T07:01:59.267Z,23.6
2022-11-15T07:03:01.854Z,23.6
2022-11-15T07:04:04.072Z,23.7
2022-11-15T07:05:05.984Z,23.6
2022-11-15T07:06:08.977Z,23.6
2022-11-15T07:07:11.463Z,23.6
2022-11-15T07:08:14.203Z,23.6
2022-11-15T07:09:16.400Z,23.6
2022-11-15T07:10:18.609Z,23.6
2022-11-15T07:11:20.816Z,23.6
2022-11-15T07:12:22.719Z,23.6
2022-11-15T07:13:24.939Z,23.6
2022-11-15T07:14:27.417Z,23.6
2022-11-15T07:15:29.629Z,23.6
2022-11-15T07:16:31.833Z,23.6
2022-11-15T07:17:34.081Z,23.6
2022-11-15T07:18:35.777Z,23.6
2022-11-15T07:19:37.989Z,23.6
2022-11-15T07:20:39.913Z,23.6
2022-11-15T07:21:41.843Z,23.6
2022-11-15T07:22:44.029Z,23.6
2022-11-15T07:23:46.559Z,23.6
2022-11-15T07:24:48.907Z,23.6
2022-11-15T07:25:50.702Z,23.6
2022-11-15T07:26:53.696Z,23.6
2022-11-15T07:27:57.380Z,23.6
2022-11-15T07:29:00.354Z,23.6
2022-11-15T07:30:02.839Z,23.6
2022-11-15T07:31:05.027Z,23.6
2022-11-15T07:32:06.688Z,23.6
2022-11-15T07:33:09.190Z,23.6
2022-11-15T07:34:11.605Z,23.6
2022-11-15T07:35:13.810Z,23.6
2022-11-15T07:36:16.322Z,23.6
2022-11-15T07:37:18.511Z,23.6
2022-11-15T07:38:21.050Z,23.6
2022-11-15T07:39:23.645Z,23.6
2022-11-15T07:40:25.837Z,23.6
2022-11-15T07:41:28.357Z,23.6
2022-11-15T07:42:30.553Z,23.6
2022-11-15T07:43:34.030Z,23.6
2022-11-15T07:44:36.983Z,23.6
2022-11-15T07:45:39.199Z,23.6
2022-11-15T07:46:41.412Z,23.6
2022-11-15T07:47:43.888Z,23.6
2022-11-15T07:48:46.955Z,23.6
2022-11-15T07:49:48.997Z,23.6
2022-11-15T07:50:51.199Z,23.6
2022-11-15T07:51:53.692Z,23.6
2022-11-15T07:52:55.667Z,23.6
2022-11-15T07:53:57.873Z,23.6
2022-11-15T07:55:00.176Z,23.6
2022-11-15T07:56:02.659Z,23.6
2022-11-15T07:58:09.820Z,23.6
2022-11-15T07:59:12.330Z,23.6
2022-11-15T08:00:14.811Z,23.6
2022-11-15T08:01:17.500Z,23.6
2022-11-15T08:02:20.564Z,23.6
2022-11-15T08:03:26.805Z,23.6
2022-11-15T08:04:29.071Z,23.6
2022-11-15T08:05:31.306Z,23.6
2022-11-15T08:06:33.513Z,23.6
2022-11-15T08:07:35.950Z,23.6
2022-11-15T08:08:37.801Z,23.6
2022-11-15T08:09:39.435Z,23.6
2022-11-15T08:10:42.026Z,23.6
2022-11-15T08:11:44.226Z,23.6
2022-11-15T08:12:46.660Z,23.6
2022-11-15T08:13:49.133Z,23.6
2022-11-15T08:14:51.315Z,23.6
2022-11-15T08:16:57.969Z,23.6
2022-11-15T08:17:59.880Z,23.6
2022-11-15T08:19:01.807Z,23.6
2022-11-15T08:20:04.378Z,23.6
2022-11-15T08:21:07.057Z,23.6
2022-11-15T08:22:09.016Z,23.6
2022-11-15T08:23:11.495Z,23.6
2022-11-15T08:24:13.392Z,23.6
2022-11-15T08:25:15.593Z,23.6
2022-11-15T08:26:17.569Z,23.6
2022-11-15T08:27:20.245Z,23.6
2022-11-15T08:28:22.840Z,23.6
2022-11-15T08:29:25.035Z,23.6
2022-11-15T08:30:27.084Z,23.6
2022-11-15T08:31:29.282Z,23.6
2022-11-15T08:32:31.487Z,23.6
2022-11-15T08:33:34.975Z,23.6
2022-11-15T08:34:37.896Z,23.6
2022-11-15T08:35:40.112Z,23.6
2022-11-15T08:37:47.366Z,23.6
2022-11-15T08:38:49.578Z,23.6
2022-11-15T08:39:51.516Z,23.6
2022-11-15T08:40:53.718Z,23.6
2022-11-15T08:41:56.235Z,23.6
2022-11-15T08:42:58.742Z,23.6
2022-11-15T08:44:00.664Z,23.6
2022-11-15T08:45:02.877Z,23.6
2022-11-15T08:46:05.371Z,23.6
2022-11-15T08:47:07.572Z,23.6
2022-11-15T08:48:09.801Z,23.6
2022-11-15T08:49:12.288Z,23.6
2022-11-15T08:50:14.504Z,23.6
2022-11-15T08:51:16.993Z,23.6
2022-11-15T08:52:18.654Z,23.6
2022-11-15T08:53:20.652Z,23.6
2022-11-15T08:54:22.851Z,23.6
2022-11-15T08:55:25.758Z,23.6
2022-11-15T08:56:27.413Z,23.6
2022-11-15T08:57:29.956Z,23.6
2022-11-15T08:58:33.188Z,23.6
2022-11-15T08:59:36.759Z,23.6
2022-11-15T09:00:39.252Z,23.6
2022-11-15T09:01:41.948Z,23.6
2022-11-15T09:02:44.629Z,23.6
2022-11-15T09:03:47.102Z,23.6
2022-11-15T09:04:49.591Z,23.6
2022-11-15T09:05:52.100Z,23.6
2022-11-15T09:06:54.283Z,23.6
2022-11-15T09:07:56.750Z,23.6
2022-11-15T09:08:59.803Z,23.6
2022-11-15T09:10:02.430Z,23.6
2022-11-15T09:11:04.654Z,23.6
2022-11-15T09:12:07.128Z,23.6
2022-11-15T09:13:09.394Z,23.6
2022-11-15T09:14:11.607Z,23.6
2022-11-15T09:15:14.087Z,23.6
2022-11-15T09:16:16.365Z,23.6
2022-11-15T09:18:23.525Z,23.6
2022-11-15T09:19:25.712Z,23.6
2022-11-15T09:20:27.658Z,23.6
2022-11-15T09:21:30.131Z,23.6
2022-11-15T09:22:32.076Z,23.6
2022-11-15T09:23:34.274Z,23.6
2022-11-15T09:24:36.515Z,23.6
2022-11-15T09:25:39.012Z,23.6
2022-11-15T09:26:41.487Z,23.6
2022-11-15T09:27:43.693Z,23.6
2022-11-15T09:28:45.962Z,23.6
2022-11-15T09:29:48.156Z,23.6
2022-11-15T09:30:50.391Z,23.6
2022-11-15T09:31:52.874Z,23.6
2022-11-15T09:32:55.361Z,23.6
2022-11-15T09:33:57.277Z,23.6
2022-11-15T09:34:59.753Z,23.6
2022-11-15T09:36:01.679Z,23.6
2022-11-15T09:37:03.619Z,23.6
2022-11-15T09:38:05.924Z,23.6
2022-11-15T09:39:08.129Z,23.6
2022-11-15T09:40:10.449Z,23.6
2022-11-15T09:41:12.922Z,23.6
2022-11-15T09:42:15.419Z,23.6
2022-11-15T09:43:17.674Z,23.6
2022-11-15T09:45:25.203Z,23.6
2022-11-15T09:46:27.696Z,23.6
2022-11-15T09:47:30.173Z,23.6
2022-11-15T09:48:33.019Z,23.6
2022-11-15T09:49:36.394Z,23.6
2022-11-15T09:50:38.592Z,23.6
2022-11-15T09:51:40.837Z,23.6
2022-11-15T09:52:43.045Z,23.6
2022-11-15T09:55:56.059Z,23.6
2022-11-15T09:56:58.084Z,23.6
2022-11-15T09:58:00.582Z,23.6
2022-11-15T09:59:02.781Z,23.6
2022-11-15T10:01:10.415Z,23.6
2022-11-15T10:02:13.035Z,23.6
2022-11-15T10:03:15.191Z,23.6
2022-11-15T10:04:18.775Z,23.6
2022-11-15T10:05:21.023Z,23.6
2022-11-15T10:06:22.972Z,23.6
2022-11-15T10:07:25.773Z,23.6
2022-11-15T10:08:27.841Z,23.6
2022-11-15T10:09:30.417Z,23.6
2022-11-15T10:10:32.892Z,23.6
2022-11-15T10:12:40.147Z,23.6
2022-11-15T10:13:42.618Z,23.6
2022-11-15T10:14:46.428Z,23.6
2022-11-15T10:15:51.153Z,23.6
2022-11-15T10:16:53.394Z,23.6
2022-11-15T10:17:55.896Z,23.6
2022-11-15T10:18:58.104Z,23.6
2022-11-15T10:21:05.562Z,23.6
2022-11-15T10:22:07.492Z,23.6
2022-11-15T10:23:09.982Z,23.6
2022-11-15T10:24:12.239Z,23.6
2022-11-15T10:25:14.811Z,23.6
2022-11-15T10:26:17.002Z,23.6
2022-11-15T10:27:18.958Z,23.6
2022-11-15T10:28:21.505Z,23.6
2022-11-15T10:30:28.416Z,23.6
2022-11-15T10:31:30.611Z,23.6
2022-11-15T10:32:33.128Z,23.6
2022-11-15T10:33:35.484Z,23.6
2022-11-15T10:34:37.415Z,23.6
2022-11-15T10:35:40.145Z,23.6
2022-11-15T10:37:47.364Z,23.6
2022-11-15T10:38:49.878Z,23.6
2022-11-15T10:39:52.360Z,23.6
2022-11-15T10:40:54.581Z,23.6
2022-11-15T10:41:57.063Z,23.6
2022-11-15T10:42:59.541Z,23.6
2022-11-15T10:44:02.057Z,23.6
2022-11-15T10:45:03.981Z,23.6
2022-11-15T10:47:11.442Z,23.6
2022-11-15T10:48:14.100Z,23.6
2022-11-15T10:49:16.654Z,23.6
2022-11-15T10:50:18.586Z,23.6
2022-11-15T10:51:20.796Z,23.6
2022-11-15T10:52:23.265Z,23.6
2022-11-15T10:53:25.480Z,23.6
2022-11-15T10:54:27.689Z,23.6
2022-11-15T10:55:29.897Z,23.6
2022-11-15T10:56:32.410Z,23.6
2022-11-15T10:57:34.913Z,23.6
2022-11-15T10:58:37.405Z,23.6
2022-11-15T10:59:40.448Z,23.6
2022-11-15T11:00:42.650Z,23.6
2022-11-15T11:01:44.953Z,23.6
2022-11-15T11:02:47.256Z,23.6
2022-11-15T11:03:49.775Z,23.6
2022-11-15T11:04:52.258Z,23.6
2022-11-15T11:05:54.469Z,23.6
2022-11-15T11:06:56.356Z,23.6
2022-11-15T11:07:58.449Z,23.6
2022-11-15T11:09:00.646Z,23.6
2022-11-15T11:10:03.571Z,23.6
2022-11-15T11:11:10.117Z,23.6
2022-11-15T11:12:12.870Z,23.6
2022-11-15T11:13:14.804Z,23.6
2022-11-15T11:14:16.734Z,23.6
2022-11-15T11:15:18.981Z,23.6
2022-11-15T11:16:21.459Z,23.6
2022-11-15T11:17:23.402Z,23.6
2022-11-15T11:18:25.893Z,23.6
2022-11-15T11:19:28.195Z,23.6
2022-11-15T11:20:30.122Z,23.6
2022-11-15T11:22:37.320Z,23.6
2022-11-15T11:23:39.519Z,23.6
2022-11-15T11:24:42.002Z,23.6
2022-11-15T11:25:44.198Z,23.6
2022-11-15T11:26:46.418Z,23.6
2022-11-15T11:27:48.642Z,23.6
2022-11-15T11:28:50.907Z,23.6
2022-11-15T11:29:53.378Z,23.6
2022-11-15T11:30:55.085Z,23.6
2022-11-15T11:31:57.554Z,23.6
2022-11-15T11:32:59.787Z,23.6
2022-11-15T11:34:02.287Z,23.6
2022-11-15T11:35:04.570Z,23.6
2022-11-15T11:36:06.490Z,23.6
2022-11-15T11:37:08.985Z,23.6
2022-11-15T11:38:11.224Z,23.6
2022-11-15T11:39:17.398Z,23.6
2022-11-15T11:40:19.868Z,23.6
2022-11-15T11:41:22.073Z,23.6
2022-11-15T11:42:24.540Z,23.6
2022-11-15T11:43:27.057Z,23.6
2022-11-15T11:44:29.253Z,23.6
2022-11-15T11:45:31.461Z,23.6
2022-11-15T11:46:33.470Z,23.6
2022-11-15T11:47:35.941Z,23.6
2022-11-15T11:48:38.414Z,23.6
2022-11-15T11:49:40.974Z,23.6
2022-11-15T11:50:43.499Z,23.6
2022-11-15T11:51:45.459Z,23.6
2022-11-15T11:52:47.737Z,23.6
2022-11-15T11:53:49.944Z,23.6
2022-11-15T11:54:52.418Z,23.6
2022-11-15T11:55:54.891Z,23.6
2022-11-15T11:56:57.402Z,23.6
2022-11-15T11:57:59.607Z,23.6
2022-11-15T11:59:02.109Z,23.6
2022-11-15T12:00:04.053Z,23.6
2022-11-15T12:02:11.364Z,23.6
2022-11-15T12:03:14.598Z,23.6
2022-11-15T12:04:16.994Z,23.6
2022-11-15T12:05:19.193Z,23.6
2022-11-15T12:06:21.442Z,23.6
2022-11-15T12:07:23.266Z,23.6
2022-11-15T12:08:25.939Z,23.6
2022-11-15T12:09:28.147Z,23.6
2022-11-15T12:10:30.348Z,23.6
2022-11-15T12:11:32.887Z,23.6
2022-11-15T12:12:35.109Z,23.6
2022-11-15T12:13:37.308Z,23.6
2022-11-15T12:14:39.547Z,23.6
2022-11-15T12:15:42.019Z,23.6
2022-11-15T12:16:44.238Z,23.6
2022-11-15T12:17:46.780Z,23.6
2022-11-15T12:18:48.992Z,23.6
2022-11-15T12:19:51.469Z,23.6
2022-11-15T12:20:53.678Z,23.6
2022-11-15T12:21:55.668Z,23.6
2022-11-15T12:22:57.601Z,23.6
2022-11-15T12:23:59.803Z,23.6
2022-11-15T12:25:02.497Z,23.6
2022-11-15T12:26:04.449Z,23.6
2022-11-15T12:27:06.956Z,23.6
2022-11-15T12:28:09.698Z,23.6
2022-11-15T12:29:12.206Z,23.6
2022-11-15T12:30:14.743Z,23.6
2022-11-15T12:31:16.930Z,23.6
2022-11-15T12:32:19.134Z,23.6
2022-11-15T12:33:21.385Z,23.6
2022-11-15T12:34:23.930Z,23.6
2022-11-15T12:35:26.130Z,23.6
2022-11-15T12:36:28.325Z,23.6
2022-11-15T12:37:30.908Z,23.6
2022-11-15T12:38:34.313Z,23.6
2022-11-15T12:39:37.352Z,23.6
2022-11-15T12:40:39.575Z,23.6
2022-11-15T12:41:41.785Z,23.6
2022-11-15T12:42:43.955Z,23.6
2022-11-15T12:43:46.439Z,23.6
2022-11-15T12:44:48.909Z,23.6
2022-11-15T12:45:50.592Z,23.6
2022-11-15T12:46:53.068Z,23.6
2022-11-15T12:47:55.605Z,23.6
2022-11-15T12:48:57.901Z,23.6
2022-11-15T12:50:00.447Z,23.6
2022-11-15T12:51:02.951Z,23.6
2022-11-15T12:52:04.609Z,23.6
2022-11-15T12:53:07.160Z,23.6
2022-11-15T12:54:09.168Z,23.6
2022-11-15T12:55:10.845Z,23.6
2022-11-15T12:56:13.369Z,23.6
2022-11-15T12:57:15.844Z,23.6
2022-11-15T12:58:18.042Z,23.6
2022-11-15T12:59:20.513Z,23.6
2022-11-15T13:01:28.013Z,23.6
2022-11-15T13:02:30.585Z,23.6
2022-11-15T13:03:32.234Z,23.6
2022-11-15T13:04:34.773Z,23.6
2022-11-15T13:05:37.258Z,23.6
2022-11-15T13:06:39.462Z,23.6
2022-11-15T13:07:41.708Z,23.6
2022-11-15T13:08:43.705Z,23.6
2022-11-15T13:09:45.687Z,23.6
2022-11-15T13:10:48.164Z,23.6
2022-11-15T13:11:50.110Z,23.6
2022-11-15T13:12:52.601Z,23.6
2022-11-15T13:13:54.824Z,23.6
2022-11-15T13:14:57.432Z,23.6
2022-11-15T13:15:59.643Z,23.6
2022-11-15T13:17:01.877Z,23.6
2022-11-15T13:18:04.089Z,23.6
2022-11-15T13:19:06.022Z,23.6
2022-11-15T13:20:08.610Z,23.6
2022-11-15T13:21:11.145Z,23.6
2022-11-15T13:22:13.333Z,23.6
2022-11-15T13:23:15.537Z,23.6
2022-11-15T13:24:17.803Z,23.6
2022-11-15T13:25:20.094Z,23.6
2022-11-15T13:26:22.594Z,23.6
2022-11-15T13:27:24.779Z,23.6
2022-11-15T13:28:27.267Z,23.6
2022-11-15T13:29:29.470Z,23.6
2022-11-15T13:30:31.666Z,23.6
2022-11-15T13:31:34.140Z,23.6
2022-11-15T13:32:36.635Z,23.6
2022-11-15T13:33:38.542Z,23.6
2022-11-15T13:35:46.060Z,23.6
2022-11-15T13:36:48.245Z,23.6
2022-11-15T13:37:50.736Z,23.6
2022-11-15T13:38:52.940Z,23.6
2022-11-15T13:39:55.465Z,23.6
2022-11-15T13:40:57.961Z,23.6
2022-11-15T13:42:00.242Z,23.6
2022-11-15T13:43:02.902Z,23.6
2022-11-15T13:44:05.432Z,23.6
2022-11-15T13:45:07.627Z,23.6
2022-11-15T13:46:09.826Z,23.6
2022-11-15T13:47:12.327Z,23.6
2022-11-15T13:48:14.544Z,23.6
2022-11-15T13:49:16.755Z,23.6
2022-11-15T13:50:18.975Z,23.6
2022-11-15T13:51:21.238Z,23.6
2022-11-15T13:52:23.737Z,23.6
2022-11-15T13:53:26.216Z,23.6
2022-11-15T13:54:28.850Z,23.6
2022-11-15T13:55:31.250Z,23.6
2022-11-15T13:56:33.476Z,23.6
2022-11-15T13:57:36.009Z,23.6
2022-11-15T13:58:38.821Z,23.6
2022-11-15T13:59:41.310Z,23.6
2022-11-15T14:00:43.558Z,23.6
2022-11-15T14:01:45.677Z,23.6
2022-11-15T14:02:48.076Z,23.6
2022-11-15T14:03:50.559Z,23.6
2022-11-15T14:04:52.465Z,23.6
2022-11-15T14:05:54.666Z,23.6
2022-11-15T14:06:57.408Z,23.6
2022-11-15T14:07:59.776Z,23.6
2022-11-15T14:09:01.868Z,23.6
2022-11-15T14:10:04.559Z,23.6
2022-11-15T14:11:07.135Z,23.6
2022-11-15T14:12:09.345Z,23.6
2022-11-15T14:13:11.267Z,23.6